Time;durP1;ratioP1;P1;durP2;ratioP2;P2;SDS_P1;SDS_P2;PMS_P1;PMS_P2;Temp;Humidity;BMP_temperature;BMP_pressure;BME280_temperature;BME280_humidity;BME280_pressure;Samples;Min_cycle;Max_cycle;Signal;HPM_P1;HPM_P2
2024/03/17 00:02:37;;;;;;;16.80;8.07;;;;;;;;;;6285863;28;20377;-82
2024/03/17 00:05:38;;;;;;;68.18;21.80;;;;;;;;;;6288335;28;20040;-79
2024/03/17 00:08:38;;;;;;;70.63;23.45;;;;;;;;;;6304369;28;20063;-80
2024/03/17 00:11:39;;;;;;;73.63;24.67;;;;;;;;;;6279921;27;20065;-80
2024/03/17 00:14:42;;;;;;;63.88;21.73;;;;;;;;;;6274893;28;20098;-80
2024/03/17 00:17:43;;;;;;;37.10;13.38;;;;;;;;;;6290217;28;20037;-81
2024/03/17 00:20:44;;;;;;;12.43;6.47;;;;;;;;;;6280062;28;20499;-80
2024/03/17 00:23:49;;;;;;;10.93;6.00;;;;;;;;;;6284643;28;20064;-77
2024/03/17 00:26:49;;;;;;;23.48;10.75;;;;;;;;;;6281820;28;20044;-82
2024/03/17 00:29:50;;;;;;;12.93;6.63;;;;;;;;;;6288183;28;20390;-80
2024/03/17 00:32:51;;;;;;;11.18;5.75;;;;;;;;;;6281921;28;20296;-81
2024/03/17 00:35:52;;;;;;;10.93;6.22;;;;;;;;;;6293132;28;20127;-79
2024/03/17 00:38:52;;;;;;;10.45;6.22;;;;;;;;;;6262721;28;20052;-82
2024/03/17 00:41:53;;;;;;;16.33;7.93;;;;;;;;;;6284960;28;20039;-79
2024/03/17 00:44:54;;;;;;;17.92;9.35;;;;;;;;;;6258560;28;20053;-81
2024/03/17 00:47:55;;;;;;;19.40;9.50;;;;;;;;;;6263186;28;20114;-77
2024/03/17 00:50:56;;;;;;;14.40;7.95;;;;;;;;;;6289949;28;20048;-80
2024/03/17 00:53:59;;;;;;;14.25;6.85;;;;;;;;;;6289224;28;20073;-80
2024/03/17 00:56:59;;;;;;;11.35;6.22;;;;;;;;;;6273938;28;20039;-78
2024/03/17 01:00:00;;;;;;;7.78;5.35;;;;;;;;;;6279104;28;20178;-81
2024/03/17 01:03:01;;;;;;;9.35;5.25;;;;;;;;;;6316289;28;20056;-78
2024/03/17 01:06:05;;;;;;;11.65;5.55;;;;;;;;;;6306631;28;20113;-78
2024/03/17 01:09:05;;;;;;;10.02;4.97;;;;;;;;;;6306332;28;20048;-79
2024/03/17 01:12:06;;;;;;;8.63;4.90;;;;;;;;;;6305814;28;20119;-80
2024/03/17 01:15:08;;;;;;;14.10;5.50;;;;;;;;;;6288082;27;20036;-79
2024/03/17 01:18:09;;;;;;;9.07;5.68;;;;;;;;;;6283020;28;20063;-80
2024/03/17 01:21:10;;;;;;;13.00;6.35;;;;;;;;;;6278123;28;20483;-80
2024/03/17 01:24:11;;;;;;;9.55;4.82;;;;;;;;;;6305747;28;20043;-78
2024/03/17 01:27:14;;;;;;;9.55;4.75;;;;;;;;;;6290380;28;20048;-80
2024/03/17 01:30:19;;;;;;;8.32;4.30;;;;;;;;;;6264371;28;20048;-81
2024/03/17 01:33:20;;;;;;;7.53;4.43;;;;;;;;;;6277423;28;20125;-81
2024/03/17 01:36:21;;;;;;;6.05;4.00;;;;;;;;;;6264487;28;20045;-81
2024/03/17 01:39:21;;;;;;;7.85;4.55;;;;;;;;;;6281862;28;20478;-80
2024/03/17 01:42:22;;;;;;;9.10;4.07;;;;;;;;;;6281727;27;20501;-79
2024/03/17 01:45:34;;;;;;;8.48;3.80;;;;;;;;;;6304655;28;20048;-78
2024/03/17 01:48:35;;;;;;;8.23;4.20;;;;;;;;;;6312189;28;20052;-81
2024/03/17 01:51:36;;;;;;;10.18;4.55;;;;;;;;;;6292854;28;20442;-79
2024/03/17 01:54:38;;;;;;;14.68;7.13;;;;;;;;;;6302414;28;20048;-79
2024/03/17 01:57:41;;;;;;;10.95;5.13;;;;;;;;;;6287048;28;20060;-82
2024/03/17 02:00:42;;;;;;;8.65;4.93;;;;;;;;;;6310479;28;20051;-77
2024/03/17 02:03:43;;;;;;;12.55;5.22;;;;;;;;;;6324641;28;20044;-81
2024/03/17 02:06:44;;;;;;;10.25;5.20;;;;;;;;;;6295898;28;20055;-81
2024/03/17 02:09:45;;;;;;;8.45;4.68;;;;;;;;;;6305774;28;20160;-81
2024/03/17 02:12:47;;;;;;;8.18;4.22;;;;;;;;;;6290983;28;20040;-80
2024/03/17 02:15:48;;;;;;;9.07;4.70;;;;;;;;;;6283624;28;20036;-81
2024/03/17 02:18:54;;;;;;;9.02;4.63;;;;;;;;;;6289488;28;20048;-78
2024/03/17 02:21:57;;;;;;;7.38;4.20;;;;;;;;;;6282572;28;20032;-78
2024/03/17 02:24:58;;;;;;;10.05;4.72;;;;;;;;;;6290258;28;20053;-79
2024/03/17 02:27:59;;;;;;;11.05;4.95;;;;;;;;;;6281383;28;20051;-79
2024/03/17 02:30:59;;;;;;;8.50;4.85;;;;;;;;;;6274764;28;20044;-77
2024/03/17 02:34:00;;;;;;;11.77;4.72;;;;;;;;;;6295002;28;20111;-80
2024/03/17 02:37:06;;;;;;;9.73;4.97;;;;;;;;;;6309395;27;20055;-79
2024/03/17 02:40:10;;;;;;;7.93;4.45;;;;;;;;;;6300539;27;20613;-80
2024/03/17 02:43:11;;;;;;;;;;;;;;;;;;6291666;28;20801;-81
2024/03/17 02:46:12;;;;;;;8.93;4.68;;;;;;;;;;6272396;28;20007;-80
2024/03/17 02:49:14;;;;;;;8.52;4.50;;;;;;;;;;6303250;28;20036;-81
2024/03/17 02:52:14;;;;;;;8.43;4.18;;;;;;;;;;6300448;28;20574;-78
2024/03/17 02:55:17;;;;;;;9.20;4.30;;;;;;;;;;6278623;27;20052;-80
2024/03/17 02:58:18;;;;;;;10.00;4.72;;;;;;;;;;6301503;27;20063;-80
2024/03/17 03:01:19;;;;;;;6.68;4.22;;;;;;;;;;6284444;28;20519;-78
2024/03/17 03:04:20;;;;;;;9.25;4.90;;;;;;;;;;6275884;28;20052;-81
2024/03/17 03:07:21;;;;;;;8.57;4.20;;;;;;;;;;6296607;28;20052;-79
2024/03/17 03:10:22;;;;;;;10.95;5.18;;;;;;;;;;6286558;28;20043;-81
2024/03/17 03:13:23;;;;;;;7.50;4.40;;;;;;;;;;6307460;28;20554;-82
2024/03/17 03:16:28;;;;;;;8.60;4.78;;;;;;;;;;6270403;27;20121;-80
2024/03/17 03:19:32;;;;;;;8.38;5.03;;;;;;;;;;6284973;28;20484;-78
2024/03/17 03:22:32;;;;;;;10.40;5.50;;;;;;;;;;6272964;28;20101;-80
2024/03/17 03:25:36;;;;;;;10.63;5.00;;;;;;;;;;6315386;28;20044;-78
2024/03/17 03:28:38;;;;;;;10.20;5.40;;;;;;;;;;6322639;28;20048;-78
2024/03/17 03:31:42;;;;;;;10.35;5.13;;;;;;;;;;6276488;27;20055;-81
2024/03/17 03:34:43;;;;;;;9.23;4.70;;;;;;;;;;6295859;28;20040;-81
2024/03/17 03:37:44;;;;;;;8.88;5.10;;;;;;;;;;6265025;27;20142;-79
2024/03/17 03:40:44;;;;;;;10.68;4.78;;;;;;;;;;6307039;28;20044;-79
2024/03/17 03:43:48;;;;;;;11.30;4.78;;;;;;;;;;6301616;28;20513;-81
2024/03/17 03:46:52;;;;;;;10.93;5.35;;;;;;;;;;6287968;28;20093;-79
2024/03/17 03:49:53;;;;;;;15.32;6.40;;;;;;;;;;6302070;28;20055;-81
2024/03/17 03:52:54;;;;;;;17.08;6.18;;;;;;;;;;6303032;28;20093;-81
2024/03/17 03:55:55;;;;;;;14.98;6.15;;;;;;;;;;6287465;28;20048;-81
2024/03/17 03:58:55;;;;;;;14.32;5.85;;;;;;;;;;6301547;27;20046;-81
2024/03/17 04:01:56;;;;;;;18.83;7.05;;;;;;;;;;6302428;28;24901;-80
2024/03/17 04:04:58;;;;;;;12.93;5.55;;;;;;;;;;6298853;28;20040;-79
2024/03/17 04:07:58;;;;;;;15.90;5.95;;;;;;;;;;6284794;28;20044;-79
2024/03/17 04:11:01;;;;;;;21.80;7.68;;;;;;;;;;6264688;28;20047;-79
2024/03/17 04:14:02;;;;;;;16.63;6.35;;;;;;;;;;6293312;27;20051;-80
2024/03/17 04:17:03;;;;;;;16.92;5.60;;;;;;;;;;6285728;28;20056;-82
2024/03/17 04:20:07;;;;;;;13.35;5.63;;;;;;;;;;6288208;28;20040;-78
2024/03/17 04:23:11;;;;;;;20.63;7.93;;;;;;;;;;6308983;28;20044;-78
2024/03/17 04:26:12;;;;;;;16.38;7.05;;;;;;;;;;6284441;28;20070;-80
2024/03/17 04:29:13;;;;;;;19.65;7.85;;;;;;;;;;6274961;28;20040;-81
2024/03/17 04:32:14;;;;;;;18.10;7.05;;;;;;;;;;6267932;28;20025;-77
2024/03/17 04:35:15;;;;;;;17.05;6.13;;;;;;;;;;6295173;28;20063;-78
2024/03/17 04:38:16;;;;;;;13.52;5.47;;;;;;;;;;6311732;28;20032;-77
2024/03/17 04:41:18;;;;;;;12.90;5.75;;;;;;;;;;6290644;28;20092;-78
2024/03/17 04:44:19;;;;;;;14.10;6.45;;;;;;;;;;6290028;28;20052;-78
2024/03/17 04:47:20;;;;;;;14.32;5.70;;;;;;;;;;6235442;28;20588;-79
2024/03/17 04:50:26;;;;;;;13.45;5.13;;;;;;;;;;6266034;28;20066;-81
2024/03/17 04:53:30;;;;;;;12.25;5.93;;;;;;;;;;6246476;28;20045;-78
2024/03/17 04:56:34;;;;;;;15.73;6.88;;;;;;;;;;6246172;28;20160;-80
2024/03/17 04:59:35;;;;;;;15.52;5.70;;;;;;;;;;6292647;28;20823;-81
2024/03/17 05:02:40;;;;;;;15.80;6.88;;;;;;;;;;6264990;28;20052;-80
2024/03/17 05:05:40;;;;;;;17.42;6.10;;;;;;;;;;6278446;28;20056;-79
2024/03/17 05:08:41;;;;;;;11.05;5.60;;;;;;;;;;6289029;28;20121;-80
2024/03/17 05:11:42;;;;;;;12.15;5.28;;;;;;;;;;6282357;27;21867;-78
2024/03/17 05:14:44;;;;;;;9.65;5.25;;;;;;;;;;6304138;28;20481;-80
2024/03/17 05:17:45;;;;;;;12.45;5.88;;;;;;;;;;6300496;27;20700;-77
2024/03/17 05:20:47;;;;;;;14.15;7.38;;;;;;;;;;6299605;28;20051;-81
2024/03/17 05:23:48;;;;;;;13.45;6.38;;;;;;;;;;6297231;28;20047;-77
2024/03/17 05:26:49;;;;;;;14.73;6.82;;;;;;;;;;6270918;28;20089;-78
2024/03/17 05:29:51;;;;;;;17.70;5.95;;;;;;;;;;6299946;28;20067;-80
2024/03/17 05:32:51;;;;;;;13.85;6.00;;;;;;;;;;6300629;27;20047;-80
2024/03/17 05:35:58;;;;;;;11.18;5.25;;;;;;;;;;6296770;28;20051;-81
2024/03/17 05:39:05;;;;;;;13.63;6.27;;;;;;;;;;6315949;28;20048;-80
2024/03/17 05:42:06;;;;;;;15.88;6.07;;;;;;;;;;6296564;28;21011;-80
2024/03/17 05:45:10;;;;;;;17.55;5.82;;;;;;;;;;6310269;28;20063;-78
2024/03/17 05:48:11;;;;;;;14.32;5.35;;;;;;;;;;6302513;28;20025;-82
2024/03/17 05:51:12;;;;;;;21.33;5.80;;;;;;;;;;6318291;28;20044;-79
2024/03/17 05:54:13;;;;;;;11.35;5.30;;;;;;;;;;6284249;28;20056;-78
2024/03/17 05:57:16;;;;;;;15.35;5.68;;;;;;;;;;6280304;28;20041;-78
2024/03/17 06:00:16;;;;;;;16.50;6.53;;;;;;;;;;6282080;28;20040;-79
2024/03/17 06:03:17;;;;;;;17.52;7.22;;;;;;;;;;6304939;28;20071;-81
2024/03/17 06:06:18;;;;;;;10.65;5.60;;;;;;;;;;6296855;28;20418;-79
2024/03/17 06:09:19;;;;;;;14.43;5.47;;;;;;;;;;6305182;27;20737;-80
2024/03/17 06:12:20;;;;;;;15.18;5.60;;;;;;;;;;6300771;28;20096;-82
2024/03/17 06:15:23;;;;;;;16.08;6.93;;;;;;;;;;6287541;28;20075;-78
2024/03/17 06:18:24;;;;;;;20.63;6.35;;;;;;;;;;6246917;28;20091;-81
2024/03/17 06:21:24;;;;;;;17.15;7.70;;;;;;;;;;6281387;28;20040;-80
2024/03/17 06:24:25;;;;;;;18.15;6.03;;;;;;;;;;6265972;28;20071;-79
2024/03/17 06:27:26;;;;;;;13.32;6.00;;;;;;;;;;6291828;28;20660;-81
2024/03/17 06:30:26;;;;;;;12.90;6.65;;;;;;;;;;6310215;28;20418;-78
2024/03/17 06:33:31;;;;;;;17.50;6.88;;;;;;;;;;6298563;28;20047;-79
2024/03/17 06:36:32;;;;;;;13.85;6.00;;;;;;;;;;6302070;28;20044;-80
2024/03/17 06:39:33;;;;;;;14.25;6.80;;;;;;;;;;6316047;28;20024;-77
2024/03/17 06:42:34;;;;;;;13.85;7.07;;;;;;;;;;6296415;28;20044;-77
2024/03/17 06:45:35;;;;;;;29.88;12.75;;;;;;;;;;6327755;28;20061;-80
2024/03/17 06:48:35;;;;;;;22.88;9.65;;;;;;;;;;6299303;28;20040;-79
2024/03/17 06:51:39;;;;;;;23.02;9.98;;;;;;;;;;6267257;28;21096;-78
2024/03/17 06:54:40;;;;;;;30.70;12.98;;;;;;;;;;6284397;28;20081;-80
2024/03/17 06:57:45;;;;;;;24.17;12.52;;;;;;;;;;6304666;28;20400;-79
2024/03/17 07:00:57;;;;;;;18.75;9.68;;;;;;;;;;6295390;28;20031;-77
2024/03/17 07:03:58;;;;;;;17.02;7.97;;;;;;;;;;6315925;28;20044;-80
2024/03/17 07:06:59;;;;;;;32.78;7.38;;;;;;;;;;6292945;28;20520;-80
2024/03/17 07:10:04;;;;;;;13.02;6.22;;;;;;;;;;6291728;27;20058;-81
2024/03/17 07:13:05;;;;;;;13.90;6.07;;;;;;;;;;6290640;28;20040;-81
2024/03/17 07:16:07;;;;;;;13.10;6.93;;;;;;;;;;6283021;28;20040;-80
2024/03/17 07:19:08;;;;;;;14.90;6.80;;;;;;;;;;6310595;28;20044;-78
2024/03/17 07:22:08;;;;;;;15.13;9.20;;;;;;;;;;6307443;28;20051;-78
2024/03/17 07:25:09;;;;;;;14.00;7.90;;;;;;;;;;6304918;28;20048;-78
2024/03/17 07:28:10;;;;;;;15.57;7.32;;;;;;;;;;6306050;28;20032;-79
2024/03/17 07:31:11;;;;;;;11.55;6.50;;;;;;;;;;6286692;28;20127;-82
2024/03/17 07:34:12;;;;;;;16.52;8.60;;;;;;;;;;6305113;27;20047;-82
2024/03/17 07:37:13;;;;;;;14.02;6.68;;;;;;;;;;6273080;28;20039;-81
2024/03/17 07:40:15;;;;;;;14.93;6.35;;;;;;;;;;6271750;28;20368;-82
2024/03/17 07:43:16;;;;;;;14.77;8.45;;;;;;;;;;6272497;28;20036;-81
2024/03/17 07:46:17;;;;;;;23.70;11.57;;;;;;;;;;6289500;28;20066;-79
2024/03/17 07:49:21;;;;;;;13.18;6.57;;;;;;;;;;6290331;28;20063;-79
2024/03/17 07:52:22;;;;;;;25.27;11.18;;;;;;;;;;6306655;28;20052;-81
2024/03/17 07:55:22;;;;;;;13.27;6.35;;;;;;;;;;6260552;28;20045;-79
2024/03/17 07:58:24;;;;;;;11.27;5.88;;;;;;;;;;6248539;28;20044;-82
2024/03/17 08:01:26;;;;;;;18.65;8.50;;;;;;;;;;6281173;28;20044;-80
2024/03/17 08:04:27;;;;;;;25.60;12.60;;;;;;;;;;6287881;28;20066;-80
2024/03/17 08:07:28;;;;;;;25.38;11.73;;;;;;;;;;6286149;28;20062;-82
2024/03/17 08:10:29;;;;;;;27.17;15.05;;;;;;;;;;6300404;27;20130;-79
2024/03/17 08:13:37;;;;;;;12.75;6.28;;;;;;;;;;6270843;28;20429;-81
2024/03/17 08:16:37;;;;;;;14.98;7.07;;;;;;;;;;6267585;28;20045;-80
2024/03/17 08:19:38;;;;;;;14.68;7.35;;;;;;;;;;6261778;28;20043;-82
2024/03/17 08:22:40;;;;;;;12.90;6.65;;;;;;;;;;6257948;28;20717;-81
2024/03/17 08:25:40;;;;;;;24.60;12.20;;;;;;;;;;6270850;28;20496;-81
2024/03/17 08:28:41;;;;;;;10.13;6.18;;;;;;;;;;6255163;28;20044;-82
2024/03/17 08:31:42;;;;;;;10.48;5.85;;;;;;;;;;6282669;28;20589;-81
2024/03/17 08:34:47;;;;;;;13.77;6.80;;;;;;;;;;6271565;28;20052;-81
2024/03/17 08:37:50;;;;;;;12.75;7.63;;;;;;;;;;6288805;28;20037;-81
2024/03/17 08:40:52;;;;;;;9.73;5.65;;;;;;;;;;6289135;28;20048;-81
2024/03/17 08:43:53;;;;;;;10.55;5.95;;;;;;;;;;6292154;28;20044;-81
2024/03/17 08:46:53;;;;;;;9.40;6.05;;;;;;;;;;6274627;28;20045;-81
2024/03/17 08:49:54;;;;;;;9.63;6.07;;;;;;;;;;6230956;28;20028;-80
2024/03/17 08:52:55;;;;;;;7.15;4.85;;;;;;;;;;6272617;28;20044;-80
2024/03/17 08:55:59;;;;;;;11.68;6.93;;;;;;;;;;6265259;28;20108;-80
2024/03/17 08:59:00;;;;;;;8.50;4.53;;;;;;;;;;6273037;28;20579;-81
2024/03/17 09:02:01;;;;;;;16.60;8.40;;;;;;;;;;6284671;28;20106;-82
2024/03/17 09:05:05;;;;;;;9.18;4.43;;;;;;;;;;6277083;28;20035;-82
2024/03/17 09:08:20;;;;;;;9.95;5.95;;;;;;;;;;6277908;28;20044;-80
2024/03/17 09:11:25;;;;;;;10.68;5.65;;;;;;;;;;6271966;28;20048;-82
2024/03/17 09:14:26;;;;;;;23.02;10.77;;;;;;;;;;6292644;28;20528;-81
2024/03/17 09:17:27;;;;;;;13.82;8.60;;;;;;;;;;6269028;28;20044;-81
2024/03/17 09:20:28;;;;;;;8.52;5.82;;;;;;;;;;6288412;28;20040;-82
2024/03/17 09:23:30;;;;;;;4.97;3.22;;;;;;;;;;6305512;28;20039;-82
2024/03/17 09:26:31;;;;;;;6.60;3.23;;;;;;;;;;6283346;28;20041;-82
2024/03/17 09:29:33;;;;;;;5.75;3.50;;;;;;;;;;6271723;27;20048;-80
2024/03/17 09:32:33;;;;;;;4.50;3.13;;;;;;;;;;6293593;27;20039;-81
2024/03/17 09:35:34;;;;;;;5.47;3.60;;;;;;;;;;6312343;28;20096;-81
2024/03/17 09:38:35;;;;;;;5.03;3.33;;;;;;;;;;6312886;28;20060;-81
2024/03/17 09:41:38;;;;;;;4.22;2.70;;;;;;;;;;6307053;28;20123;-82
2024/03/17 09:44:41;;;;;;;5.82;3.10;;;;;;;;;;6292411;28;20496;-81
2024/03/17 09:47:44;;;;;;;5.97;3.63;;;;;;;;;;6275065;28;20044;-82
2024/03/17 09:50:55;;;;;;;4.90;3.28;;;;;;;;;;6267678;28;20252;-82
2024/03/17 09:53:56;;;;;;;4.47;3.10;;;;;;;;;;6303071;28;20062;-81
2024/03/17 09:56:57;;;;;;;4.28;3.00;;;;;;;;;;6271332;28;20041;-80
2024/03/17 09:59:58;;;;;;;4.05;3.15;;;;;;;;;;6289929;28;20070;-80
2024/03/17 10:02:58;;;;;;;3.22;2.60;;;;;;;;;;6304731;27;20098;-80
2024/03/17 10:06:00;;;;;;;5.00;3.28;;;;;;;;;;6290881;28;20044;-82
2024/03/17 10:09:05;;;;;;;8.07;3.65;;;;;;;;;;6267185;28;20043;-81
2024/03/17 10:12:25;;;;;;;6.18;3.33;;;;;;;;;;6267441;28;20055;-81
2024/03/17 10:15:26;;;;;;;4.57;2.95;;;;;;;;;;6295447;28;20052;-81
2024/03/17 10:18:27;;;;;;;3.40;3.00;;;;;;;;;;6289954;28;20081;-81
2024/03/17 10:21:27;;;;;;;4.65;2.80;;;;;;;;;;6301920;28;20141;-82
2024/03/17 10:24:28;;;;;;;5.35;3.28;;;;;;;;;;6302996;28;20063;-81
2024/03/17 10:27:29;;;;;;;5.75;3.08;;;;;;;;;;6283241;28;20036;-82
2024/03/17 10:30:30;;;;;;;4.70;3.20;;;;;;;;;;6290446;28;20466;-81
2024/03/17 10:33:31;;;;;;;9.85;3.80;;;;;;;;;;6265706;28;20426;-82
2024/03/17 10:36:32;;;;;;;10.05;6.10;;;;;;;;;;6270564;28;20044;-81
2024/03/17 10:39:34;;;;;;;5.18;3.65;;;;;;;;;;6285287;28;20508;-82
2024/03/17 10:42:36;;;;;;;5.13;3.45;;;;;;;;;;6297655;28;20515;-81
2024/03/17 10:45:38;;;;;;;5.50;3.40;;;;;;;;;;6314723;28;20043;-81
2024/03/17 10:48:41;;;;;;;5.70;3.40;;;;;;;;;;6316600;28;20059;-82
2024/03/17 10:51:47;;;;;;;6.25;3.50;;;;;;;;;;6263199;28;20545;-81
2024/03/17 10:54:50;;;;;;;7.38;3.35;;;;;;;;;;6288104;28;20044;-80
2024/03/17 10:57:58;;;;;;;5.07;3.20;;;;;;;;;;6270910;28;20044;-82
2024/03/17 11:01:02;;;;;;;4.82;2.88;;;;;;;;;;6310023;28;20036;-83
2024/03/17 11:04:04;;;;;;;4.72;3.40;;;;;;;;;;6294291;28;20051;-82
2024/03/17 11:07:07;;;;;;;5.07;3.25;;;;;;;;;;6306354;27;20039;-80
2024/03/17 11:10:11;;;;;;;10.00;5.47;;;;;;;;;;6295102;28;20054;-81
2024/03/17 11:13:23;;;;;;;5.82;3.17;;;;;;;;;;6302099;28;20046;-81
2024/03/17 11:16:27;;;;;;;5.32;3.40;;;;;;;;;;6289964;28;20051;-82
2024/03/17 11:19:29;;;;;;;6.10;3.70;;;;;;;;;;6287978;28;20041;-81
2024/03/17 11:22:43;;;;;;;7.30;3.88;;;;;;;;;;6325396;28;20058;-81
2024/03/17 11:25:51;;;;;;;6.35;3.30;;;;;;;;;;6280991;28;20047;-83
2024/03/17 11:28:53;;;;;;;4.65;2.75;;;;;;;;;;6289698;28;20088;-83
2024/03/17 11:31:55;;;;;;;6.43;4.40;;;;;;;;;;6262257;28;20116;-82
2024/03/17 11:35:12;;;;;;;6.00;3.77;;;;;;;;;;6299511;28;20028;-80
2024/03/17 11:38:52;;;;;;;6.00;3.85;;;;;;;;;;6330949;28;20038;-80
2024/03/17 11:41:53;;;;;;;6.72;3.30;;;;;;;;;;6310433;28;20024;-82
2024/03/17 11:45:07;;;;;;;5.05;3.20;;;;;;;;;;6271049;28;20093;-81
2024/03/17 11:48:13;;;;;;;5.57;3.50;;;;;;;;;;6249586;28;20060;-81
2024/03/17 11:51:15;;;;;;;5.80;3.45;;;;;;;;;;6269561;28;20048;-80
2024/03/17 11:54:21;;;;;;;5.88;3.10;;;;;;;;;;6238742;28;20041;-81
2024/03/17 11:57:26;;;;;;;7.22;3.03;;;;;;;;;;6261767;28;20055;-81
2024/03/17 12:00:27;;;;;;;5.43;3.55;;;;;;;;;;6266000;28;20079;-82
2024/03/17 12:03:28;;;;;;;4.72;3.47;;;;;;;;;;6299464;28;20352;-83
2024/03/17 12:06:29;;;;;;;5.78;3.80;;;;;;;;;;6262961;28;20047;-82
2024/03/17 12:09:31;;;;;;;16.90;6.97;;;;;;;;;;6240440;28;20041;-83
2024/03/17 12:12:35;;;;;;;14.65;6.32;;;;;;;;;;6277142;28;20050;-83
2024/03/17 12:15:35;;;;;;;5.38;3.90;;;;;;;;;;6279844;28;20036;-83
2024/03/17 12:18:40;;;;;;;5.43;3.85;;;;;;;;;;6291944;28;20474;-83
2024/03/17 12:21:44;;;;;;;8.48;4.00;;;;;;;;;;6278636;28;20121;-83
2024/03/17 12:24:46;;;;;;;3.95;3.13;;;;;;;;;;6277487;28;20045;-82
2024/03/17 12:27:48;;;;;;;6.43;4.43;;;;;;;;;;6261460;28;20051;-82
2024/03/17 12:30:50;;;;;;;5.82;3.40;;;;;;;;;;6277645;28;20036;-84
2024/03/17 12:33:51;;;;;;;6.40;3.60;;;;;;;;;;6275364;28;20501;-83
2024/03/17 12:36:53;;;;;;;18.27;9.18;;;;;;;;;;6286067;28;20044;-82
2024/03/17 12:39:54;;;;;;;5.47;3.45;;;;;;;;;;6274398;28;20051;-82
2024/03/17 12:42:55;;;;;;;8.43;4.32;;;;;;;;;;6281492;28;20060;-83
2024/03/17 12:45:56;;;;;;;5.38;3.47;;;;;;;;;;6268549;28;20353;-82
2024/03/17 12:49:00;;;;;;;5.82;3.55;;;;;;;;;;6296548;28;20330;-83
2024/03/17 12:52:02;;;;;;;8.85;4.72;;;;;;;;;;6283719;28;20052;-84
2024/03/17 13:01:51;;;;;;;6.63;3.30;;;;;;;;;;6265411;28;20055;-83
2024/03/17 13:05:13;;;;;;;4.47;3.05;;;;;;;;;;6283370;28;20044;-83
2024/03/17 13:08:14;;;;;;;5.80;3.70;;;;;;;;;;6303208;28;21923;-82
2024/03/17 13:11:17;;;;;;;5.00;3.10;;;;;;;;;;6288908;28;20129;-84
2024/03/17 13:14:18;;;;;;;4.00;3.03;;;;;;;;;;6269423;28;20032;-82
2024/03/17 13:17:19;;;;;;;6.85;3.45;;;;;;;;;;6309044;28;20879;-81
2024/03/17 13:20:20;;;;;;;5.88;3.38;;;;;;;;;;6311652;28;20111;-81
2024/03/17 13:23:24;;;;;;;4.25;3.10;;;;;;;;;;6310257;28;20047;-83
2024/03/17 13:26:25;;;;;;;3.42;2.85;;;;;;;;;;6290367;28;20048;-82
2024/03/17 13:29:26;;;;;;;5.15;3.28;;;;;;;;;;6284021;28;20394;-81
2024/03/17 13:32:26;;;;;;;6.07;3.67;;;;;;;;;;6270665;27;20342;-82
2024/03/17 13:35:29;;;;;;;6.75;3.22;;;;;;;;;;6292772;28;20086;-83
2024/03/17 13:38:30;;;;;;;;;;;;;;;;;;6293857;28;20032;-82
2024/03/17 13:41:31;;;;;;;5.07;2.83;;;;;;;;;;6303064;28;19962;-83
2024/03/17 13:44:33;;;;;;;3.92;3.20;;;;;;;;;;6277823;28;20048;-82
2024/03/17 13:47:33;;;;;;;5.07;3.22;;;;;;;;;;6272796;28;20044;-84
2024/03/17 13:50:34;;;;;;;4.50;2.90;;;;;;;;;;6282796;28;20055;-82
2024/03/17 13:53:35;;;;;;;4.57;2.90;;;;;;;;;;6289344;28;20046;-82
2024/03/17 13:56:35;;;;;;;4.68;2.92;;;;;;;;;;6277314;28;20131;-82
2024/03/17 13:59:36;;;;;;;3.63;3.00;;;;;;;;;;6283347;28;20040;-82
2024/03/17 14:02:37;;;;;;;5.53;2.75;;;;;;;;;;6285293;28;20048;-82
2024/03/17 14:05:38;;;;;;;6.25;3.50;;;;;;;;;;6295804;28;20036;-82
2024/03/17 14:08:39;;;;;;;4.65;2.85;;;;;;;;;;6317249;28;20047;-81
2024/03/17 14:11:39;;;;;;;4.45;3.10;;;;;;;;;;6298070;28;20051;-82
2024/03/17 14:14:41;;;;;;;3.88;2.70;;;;;;;;;;6293126;28;20072;-82
2024/03/17 14:17:43;;;;;;;7.50;3.60;;;;;;;;;;6290050;28;20044;-81
2024/03/17 14:20:44;;;;;;;5.05;3.10;;;;;;;;;;6260066;28;20442;-80
2024/03/17 14:23:45;;;;;;;5.45;2.83;;;;;;;;;;6264179;28;20143;-83
2024/03/17 14:26:46;;;;;;;6.00;3.10;;;;;;;;;;6254636;28;20044;-82
2024/03/17 14:29:47;;;;;;;4.68;3.88;;;;;;;;;;6290237;28;20048;-82
2024/03/17 14:32:49;;;;;;;4.88;3.00;;;;;;;;;;6305249;28;20047;-82
2024/03/17 14:35:56;;;;;;;4.80;2.97;;;;;;;;;;6293234;28;20048;-84
2024/03/17 14:39:41;;;;;;;;;;;;;;;;;;;;;
2024/03/17 14:42:57;;;;;;;6.57;3.13;;;;;;;;;;6257046;28;20051;-81
2024/03/17 14:45:58;;;;;;;6.05;3.25;;;;;;;;;;6265448;28;20454;-82
2024/03/17 14:48:59;;;;;;;4.43;3.03;;;;;;;;;;6249464;28;20048;-82
2024/03/17 14:52:01;;;;;;;5.50;2.80;;;;;;;;;;6259361;28;20880;-83
2024/03/17 14:55:03;;;;;;;4.43;3.13;;;;;;;;;;6308401;27;20049;-81
2024/03/17 14:58:06;;;;;;;4.65;2.72;;;;;;;;;;6271431;28;20481;-82
2024/03/17 15:01:09;;;;;;;3.85;2.58;;;;;;;;;;6266548;28;20102;-81
2024/03/17 15:04:09;;;;;;;3.50;2.67;;;;;;;;;;6274704;28;20090;-81
2024/03/17 15:07:12;;;;;;;5.07;2.63;;;;;;;;;;6289821;28;20063;-80
2024/03/17 15:10:13;;;;;;;5.60;2.97;;;;;;;;;;6309493;28;20067;-83
2024/03/17 15:13:14;;;;;;;3.83;2.90;;;;;;;;;;6302815;27;20040;-80
2024/03/17 15:16:15;;;;;;;4.88;2.70;;;;;;;;;;6306074;28;20044;-81
2024/03/17 15:19:16;;;;;;;2.95;2.47;;;;;;;;;;6294122;28;20089;-80
2024/03/17 15:22:17;;;;;;;4.15;3.28;;;;;;;;;;6313219;28;20052;-82
2024/03/17 15:25:19;;;;;;;4.18;3.45;;;;;;;;;;6268315;28;20097;-82
2024/03/17 15:28:20;;;;;;;5.47;3.45;;;;;;;;;;6284308;28;20510;-82
2024/03/17 15:31:24;;;;;;;5.13;3.03;;;;;;;;;;6271537;28;20063;-81
2024/03/17 15:34:25;;;;;;;5.45;3.00;;;;;;;;;;6315273;28;20040;-81
2024/03/17 15:37:26;;;;;;;5.35;2.88;;;;;;;;;;6298187;28;20047;-81
2024/03/17 15:40:27;;;;;;;4.63;3.40;;;;;;;;;;6306736;28;20050;-81
2024/03/17 15:43:31;;;;;;;6.85;4.07;;;;;;;;;;6268797;27;20117;-79
2024/03/17 15:46:33;;;;;;;3.35;2.78;;;;;;;;;;6279418;28;20055;-79
2024/03/17 15:49:33;;;;;;;3.53;2.40;;;;;;;;;;6292766;28;20119;-81
2024/03/17 15:52:35;;;;;;;3.60;2.83;;;;;;;;;;6281501;27;20128;-81
2024/03/17 15:55:36;;;;;;;3.35;2.90;;;;;;;;;;6267045;28;20044;-82
2024/03/17 15:58:39;;;;;;;5.63;3.55;;;;;;;;;;6283896;28;20965;-82
2024/03/17 16:01:40;;;;;;;4.90;3.33;;;;;;;;;;6282633;28;20522;-78
2024/03/17 16:04:43;;;;;;;5.05;3.50;;;;;;;;;;6269433;28;20048;-82
2024/03/17 16:07:43;;;;;;;8.63;4.20;;;;;;;;;;6270062;28;20456;-81
2024/03/17 16:10:50;;;;;;;8.63;4.60;;;;;;;;;;6249679;28;20630;-79
2024/03/17 16:13:51;;;;;;;5.22;3.17;;;;;;;;;;6263787;28;20052;-82
2024/03/17 16:16:52;;;;;;;8.65;6.07;;;;;;;;;;6280058;28;20052;-81
2024/03/17 16:19:54;;;;;;;5.90;3.40;;;;;;;;;;6280573;28;20112;-80
2024/03/17 16:22:56;;;;;;;5.55;3.13;;;;;;;;;;6266617;28;20048;-82
2024/03/17 16:26:01;;;;;;;6.03;3.30;;;;;;;;;;6281783;27;20040;-81
2024/03/17 16:29:02;;;;;;;7.70;4.20;;;;;;;;;;6260074;28;20064;-79
2024/03/17 16:32:03;;;;;;;9.25;5.68;;;;;;;;;;6278241;28;20477;-81
2024/03/17 16:35:06;;;;;;;8.88;5.40;;;;;;;;;;6273919;27;20040;-78
2024/03/17 16:38:07;;;;;;;12.35;6.78;;;;;;;;;;6273890;28;20048;-81
2024/03/17 16:41:10;;;;;;;8.82;5.63;;;;;;;;;;6280472;27;20051;-81
2024/03/17 16:44:30;;;;;;;6.55;4.10;;;;;;;;;;6276989;28;20145;-82
2024/03/17 16:47:34;;;;;;;6.35;3.70;;;;;;;;;;6275292;28;20433;-81
2024/03/17 16:50:35;;;;;;;6.93;4.45;;;;;;;;;;6268667;28;20052;-81
2024/03/17 16:53:36;;;;;;;7.85;4.28;;;;;;;;;;6276283;27;20058;-82
2024/03/17 16:56:38;;;;;;;11.50;6.22;;;;;;;;;;6250368;28;20738;-81
2024/03/17 16:59:41;;;;;;;14.82;7.55;;;;;;;;;;6285413;28;20143;-82
2024/03/17 17:02:44;;;;;;;8.38;4.50;;;;;;;;;;6276189;28;20044;-81
2024/03/17 17:05:47;;;;;;;6.95;4.05;;;;;;;;;;6276821;28;20051;-84
2024/03/17 17:08:49;;;;;;;7.65;4.70;;;;;;;;;;6244367;28;20044;-82
2024/03/17 17:11:53;;;;;;;6.22;3.80;;;;;;;;;;6234323;28;20054;-80
2024/03/17 17:14:54;;;;;;;8.43;4.10;;;;;;;;;;6273776;28;20120;-81
2024/03/17 17:17:57;;;;;;;6.43;3.63;;;;;;;;;;6245434;28;20044;-81
2024/03/17 17:20:58;;;;;;;;;;;;;;;;;;6229806;28;20068;-82
2024/03/17 17:24:00;;;;;;;7.90;4.40;;;;;;;;;;6250500;28;19925;-82
2024/03/17 17:27:08;;;;;;;5.93;3.90;;;;;;;;;;6258814;28;20495;-82
2024/03/17 17:30:11;;;;;;;7.25;3.88;;;;;;;;;;6252460;28;20097;-81
2024/03/17 17:33:11;;;;;;;9.75;4.22;;;;;;;;;;6267445;28;20093;-81
2024/03/17 17:36:14;;;;;;;6.20;3.72;;;;;;;;;;6264299;28;20049;-82
2024/03/17 17:39:15;;;;;;;8.52;3.97;;;;;;;;;;6275297;28;20043;-82
2024/03/17 17:42:16;;;;;;;7.95;4.32;;;;;;;;;;6264854;28;20049;-84
2024/03/17 17:45:16;;;;;;;8.85;4.95;;;;;;;;;;6271171;28;20470;-82
2024/03/17 17:48:17;;;;;;;8.82;5.10;;;;;;;;;;6281095;28;20210;-86
2024/03/17 17:51:21;;;;;;;10.00;5.07;;;;;;;;;;6277207;28;20071;-82
2024/03/17 17:54:23;;;;;;;;;;;;;;;;;;6259867;28;20041;-83
2024/03/17 17:57:26;;;;;;;10.32;5.68;;;;;;;;;;6240040;28;19921;-83
2024/03/17 18:00:27;;;;;;;8.73;5.35;;;;;;;;;;6263520;28;20045;-82
2024/03/17 18:03:29;;;;;;;9.27;5.38;;;;;;;;;;6282470;28;20424;-83
2024/03/17 18:06:29;;;;;;;10.50;5.80;;;;;;;;;;6271793;28;20044;-82
2024/03/17 18:09:31;;;;;;;6.90;5.32;;;;;;;;;;6274028;28;20517;-82
2024/03/17 18:12:32;;;;;;;9.02;5.85;;;;;;;;;;6274223;28;20049;-82
2024/03/17 18:15:33;;;;;;;26.63;14.32;;;;;;;;;;6271260;28;20060;-86